Terminal Aerodrome Forecast
Issued by NWS Lake Charles, LA

Home | Current Version | Previous Version | Text Only | Print | Product List | Glossary On
Versions: 1 2 3 4 5 6 7 8 9 10 11 12 13 14 15 16 17
021
FTUS44 KLCH 222320
TAFAEX
TAF
KAEX 222320Z 2300/2324 VRB03KT P6SM FEW060
     FM230700 00000KT 4SM BR BKN013
      TEMPO 2309/2313 2SM BR OVC008
     FM231500 14004KT 4SM BR FEW250=

USA.gov is the U.S. government's official web portal to all federal, state and local government web resources and services.